createdAt,value
2022-08-09T00:00:59.200Z,4.00
2022-08-09T00:04:00.336Z,5.00
2022-08-09T00:07:10.764Z,5.00
2022-08-09T00:10:08.180Z,4.40
2022-08-09T00:13:16.772Z,4.40
2022-08-09T00:16:15.322Z,4.60
2022-08-09T00:19:23.384Z,5.00
2022-08-09T00:22:24.826Z,4.40
2022-08-09T00:25:32.942Z,5.00
2022-08-09T00:28:29.863Z,3.60
2022-08-09T00:31:58.290Z,6.00
2022-08-09T00:34:46.339Z,5.00
2022-08-09T00:37:50.800Z,5.60
2022-08-09T00:40:52.592Z,5.80
2022-08-09T00:44:26.383Z,5.40
2022-08-09T00:47:08.577Z,4.00
2022-08-09T00:50:14.184Z,5.00
2022-08-09T00:53:32.531Z,5.40
2022-08-09T00:56:33.999Z,5.60
2022-08-09T00:59:41.485Z,6.00
2022-08-09T01:02:48.068Z,5.80
2022-08-09T01:06:13.913Z,5.00
2022-08-09T01:09:36.770Z,6.00
2022-08-09T01:12:38.985Z,5.00
2022-08-09T01:15:40.971Z,5.60
2022-08-09T01:19:01.980Z,5.00
2022-08-09T01:22:27.600Z,4.60
2022-08-09T01:25:54.770Z,5.00
2022-08-09T01:28:54.107Z,5.40
2022-08-09T01:32:30.156Z,5.40
2022-08-09T01:35:28.338Z,6.00
2022-08-09T01:38:28.826Z,5.00
2022-08-09T01:41:31.651Z,5.40
2022-08-09T01:44:29.517Z,5.20
2022-08-09T01:47:28.394Z,4.40
2022-08-09T01:50:30.046Z,5.00
2022-08-09T01:53:41.501Z,4.20
2022-08-09T01:56:40.050Z,5.00
2022-08-09T01:59:40.893Z,5.40
2022-08-09T02:02:50.062Z,5.00
2022-08-09T02:06:03.314Z,5.80
2022-08-09T02:09:04.267Z,5.60
2022-08-09T02:12:01.906Z,4.20
2022-08-09T02:14:58.978Z,6.00
2022-08-09T02:18:09.910Z,5.00
2022-08-09T02:21:21.944Z,5.60
2022-08-09T02:24:25.925Z,6.00
2022-08-09T02:27:43.267Z,6.00
2022-08-09T02:30:46.427Z,7.20
2022-08-09T02:34:06.613Z,6.00
2022-08-09T02:37:05.200Z,3.20
2022-08-09T02:40:10.518Z,4.40
2022-08-09T02:43:08.654Z,5.20
2022-08-09T02:46:09.121Z,6.40
2022-08-09T02:49:07.742Z,5.60
2022-08-09T02:52:08.079Z,5.60
2022-08-09T02:55:19.952Z,5.00
2022-08-09T02:58:35.967Z,5.80
2022-08-09T03:01:58.666Z,6.00
2022-08-09T03:04:51.102Z,7.40
2022-08-09T03:07:54.835Z,6.00
2022-08-09T03:10:53.160Z,6.00
2022-08-09T03:13:59.354Z,4.80
2022-08-09T03:17:02.395Z,5.40
2022-08-09T03:20:11.155Z,6.00
2022-08-09T03:23:15.095Z,4.00
2022-08-09T03:26:14.381Z,6.00
2022-08-09T03:29:13.502Z,5.00
2022-08-09T03:32:20.118Z,6.40
2022-08-09T03:35:24.696Z,7.60
2022-08-09T03:38:37.354Z,6.00
2022-08-09T03:41:48.691Z,8.00
2022-08-09T03:44:46.333Z,5.00
2022-08-09T03:47:46.310Z,4.40
2022-08-09T03:50:44.215Z,8.00
2022-08-09T03:53:41.116Z,6.00
2022-08-09T03:56:41.193Z,5.00
2022-08-09T03:59:53.821Z,5.00
2022-08-09T04:02:52.619Z,6.00
2022-08-09T04:05:50.858Z,8.40
2022-08-09T04:08:48.258Z,6.40
2022-08-09T04:11:51.082Z,5.80
2022-08-09T04:15:00.450Z,5.40
2022-08-09T04:18:00.507Z,8.00
2022-08-09T04:20:58.047Z,8.00
2022-08-09T04:23:57.735Z,6.20
2022-08-09T04:26:54.954Z,8.00
2022-08-09T04:29:53.043Z,8.00
2022-08-09T04:32:51.833Z,6.00
2022-08-09T04:35:49.203Z,3.60
2022-08-09T04:38:47.359Z,4.60
2022-08-09T04:41:45.531Z,5.20
2022-08-09T04:44:49.063Z,6.60
2022-08-09T04:48:00.209Z,9.00
2022-08-09T04:51:00.486Z,6.80
2022-08-09T04:53:59.350Z,6.00
2022-08-09T04:56:56.467Z,6.80
2022-08-09T04:59:55.463Z,6.20
2022-08-09T05:02:53.412Z,9.00
2022-08-09T05:05:52.739Z,9.40
2022-08-09T05:09:04.630Z,9.00
2022-08-09T05:12:02.362Z,5.60
2022-08-09T05:15:01.055Z,7.80
2022-08-09T05:18:42.520Z,7.80
2022-08-09T05:21:24.282Z,7.60
2022-08-09T05:24:22.130Z,8.00
2022-08-09T05:27:21.116Z,7.20
2022-08-09T05:30:20.087Z,16.00
2022-08-09T05:33:17.011Z,14.00
2022-08-09T05:36:15.565Z,13.20
2022-08-09T05:39:13.124Z,14.20
2022-08-09T05:42:20.831Z,11.40
2022-08-09T05:45:19.098Z,11.80
2022-08-09T05:48:16.135Z,10.40
2022-08-09T05:51:30.119Z,8.60
2022-08-09T05:54:31.110Z,10.00
2022-08-09T05:57:55.987Z,7.20
2022-08-09T06:00:47.510Z,7.60
2022-08-09T06:03:58.448Z,9.00
2022-08-09T06:06:56.281Z,9.60
2022-08-09T06:10:01.386Z,8.80
2022-08-09T06:13:12.441Z,10.00
2022-08-09T06:16:16.462Z,8.40
2022-08-09T06:19:14.863Z,8.20
2022-08-09T06:22:15.377Z,10.00
2022-08-09T06:25:16.365Z,7.60
2022-08-09T06:28:13.716Z,8.20
2022-08-09T06:31:11.183Z,7.20
2022-08-09T06:34:09.482Z,7.40
2022-08-09T06:37:10.006Z,6.60
2022-08-09T06:40:20.285Z,5.40
2022-08-09T06:43:20.929Z,5.00
2022-08-09T06:46:39.203Z,6.00
2022-08-09T06:50:11.809Z,5.00
2022-08-09T06:52:52.927Z,6.00
2022-08-09T06:55:50.428Z,5.00
2022-08-09T07:00:50.760Z,4.80
2022-08-09T07:02:04.771Z,4.80
2022-08-09T07:05:02.573Z,4.80
2022-08-09T07:08:01.771Z,4.20
2022-08-09T07:10:59.225Z,4.00
2022-08-09T07:14:05.585Z,4.00
2022-08-09T07:17:03.649Z,4.00
2022-08-09T07:20:06.099Z,4.00
2022-08-09T07:23:18.641Z,3.00
2022-08-09T07:26:16.489Z,3.60
2022-08-09T07:29:16.147Z,4.00
2022-08-09T07:32:13.129Z,5.00
2022-08-09T07:35:11.999Z,4.20
2022-08-09T07:38:09.162Z,4.60
2022-08-09T07:41:11.458Z,4.40
2022-08-09T07:44:11.775Z,4.80
2022-08-09T07:47:10.568Z,4.00
2022-08-09T07:50:12.538Z,4.00
2022-08-09T07:53:09.464Z,3.00
2022-08-09T07:56:06.811Z,3.00
2022-08-09T07:59:12.346Z,3.00
2022-08-09T08:02:11.213Z,4.60
2022-08-09T08:05:18.945Z,3.60
2022-08-09T08:09:00.213Z,3.00
2022-08-09T08:12:10.047Z,4.00
2022-08-09T08:14:51.729Z,4.20
2022-08-09T08:17:58.332Z,3.20
2022-08-09T08:20:56.354Z,4.00
2022-08-09T08:23:56.067Z,3.00
2022-08-09T08:26:56.817Z,3.00
2022-08-09T08:29:54.330Z,4.80
2022-08-09T08:32:54.071Z,4.00
2022-08-09T08:35:58.277Z,3.60
2022-08-09T08:38:57.989Z,3.40
2022-08-09T08:41:55.178Z,4.00
2022-08-09T08:44:57.645Z,4.00
2022-08-09T08:47:59.061Z,3.00
2022-08-09T08:50:57.417Z,4.20
2022-08-09T08:54:02.985Z,3.00
2022-08-09T08:57:01.906Z,3.20
2022-08-09T08:59:59.453Z,3.00
2022-08-09T09:03:04.473Z,3.60
2022-08-09T09:06:12.861Z,3.60
2022-08-09T09:09:21.091Z,2.25
2022-08-09T09:12:32.033Z,3.00
2022-08-09T09:15:31.530Z,2.50
2022-08-09T09:18:30.498Z,3.00
2022-08-09T09:21:27.282Z,2.50
2022-08-09T09:24:30.605Z,3.25
2022-08-09T09:28:06.412Z,3.75
2022-08-09T09:30:54.523Z,3.00
2022-08-09T09:33:57.007Z,3.25
2022-08-09T09:36:55.002Z,2.00
2022-08-09T09:39:55.448Z,5.00
2022-08-09T09:42:56.508Z,3.00
2022-08-09T09:45:57.126Z,3.50
2022-08-09T09:49:04.853Z,4.00
2022-08-09T09:52:05.465Z,5.00
2022-08-09T09:55:16.435Z,4.75
2022-08-09T09:58:24.656Z,3.75
2022-08-09T10:01:37.108Z,4.00
2022-08-09T10:04:35.359Z,3.25
2022-08-09T10:07:33.931Z,2.00
2022-08-09T10:10:31.938Z,3.00
2022-08-09T10:13:43.192Z,3.50
2022-08-09T10:16:57.284Z,2.75
2022-08-09T10:19:59.259Z,4.00
2022-08-09T10:23:00.991Z,4.00
2022-08-09T10:26:06.266Z,4.75
2022-08-09T10:29:20.985Z,3.50
2022-08-09T10:32:42.846Z,3.00
2022-08-09T10:35:41.515Z,4.00
2022-08-09T10:38:57.257Z,4.00
2022-08-09T10:41:57.670Z,3.00
2022-08-09T10:45:01.280Z,4.00
2022-08-09T10:48:16.872Z,3.25
2022-08-09T10:51:29.698Z,2.75
2022-08-09T10:54:38.935Z,3.25
2022-08-09T10:57:37.700Z,1.00
2022-08-09T11:00:37.611Z,4.00
2022-08-09T11:04:31.294Z,2.00
2022-08-09T11:07:56.599Z,5.00
2022-08-09T11:10:47.026Z,4.00
2022-08-09T11:14:32.123Z,3.25
2022-08-09T11:17:43.333Z,4.00
2022-08-09T11:20:45.463Z,3.75
2022-08-09T11:24:01.479Z,3.00
2022-08-09T11:27:03.702Z,2.75
2022-08-09T11:30:32.737Z,2.75
2022-08-09T11:33:46.226Z,2.25
2022-08-09T11:36:44.327Z,2.00
2022-08-09T11:40:04.461Z,3.00
2022-08-09T11:43:01.572Z,4.25
2022-08-09T11:46:00.035Z,4.25
2022-08-09T11:48:57.999Z,1.00
2022-08-09T11:53:15.214Z,4.50
2022-08-09T11:55:52.163Z,3.50
2022-08-09T11:58:54.655Z,4.00
2022-08-09T12:02:16.612Z,2.75
2022-08-09T12:05:17.466Z,4.75
2022-08-09T12:08:22.146Z,2.25
2022-08-09T12:11:21.339Z,3.00
2022-08-09T12:14:37.282Z,4.00
2022-08-09T12:17:43.549Z,2.00
2022-08-09T12:20:43.713Z,3.25
2022-08-09T12:23:58.054Z,1.50
2022-08-09T12:29:13.478Z,3.00
2022-08-09T12:30:36.853Z,3.75
2022-08-09T12:33:59.488Z,3.75
2022-08-09T12:36:59.021Z,4.00
2022-08-09T12:40:11.579Z,2.00
2022-08-09T12:43:09.607Z,3.25
2022-08-09T12:46:06.700Z,3.00
2022-08-09T12:49:04.811Z,1.50
2022-08-09T12:52:03.622Z,3.25
2022-08-09T12:56:12.653Z,4.25
2022-08-09T12:58:27.476Z,1.75
2022-08-09T13:01:28.331Z,3.00
2022-08-09T13:04:35.833Z,2.50
2022-08-09T13:07:51.591Z,3.00
2022-08-09T13:10:56.884Z,3.75
2022-08-09T13:14:38.629Z,2.75
2022-08-09T13:17:43.989Z,5.00
2022-08-09T13:20:37.678Z,2.75
2022-08-09T13:24:16.271Z,1.75
2022-08-09T13:27:08.618Z,1.75
2022-08-09T13:30:50.557Z,3.50
2022-08-09T13:33:35.934Z,2.25
2022-08-09T13:36:44.177Z,2.75
2022-08-09T13:41:56.658Z,4.00
2022-08-09T13:42:58.709Z,2.50
2022-08-09T13:46:44.774Z,3.50
2022-08-09T13:49:18.459Z,3.00
2022-08-09T13:52:15.387Z,2.00
2022-08-09T13:55:17.764Z,2.75
2022-08-09T13:58:18.733Z,2.00
2022-08-09T14:02:01.105Z,3.50
2022-08-09T14:04:32.662Z,3.00
2022-08-09T14:07:30.375Z,2.50
2022-08-09T14:10:49.157Z,1.75
2022-08-09T14:14:16.105Z,0.75
2022-08-09T14:17:06.386Z,3.00
2022-08-09T14:20:09.133Z,2.75
2022-08-09T14:23:06.815Z,2.00
2022-08-09T14:26:05.966Z,2.50
2022-08-09T14:29:08.302Z,2.75
2022-08-09T14:32:30.846Z,2.00
2022-08-09T14:35:28.516Z,0.75
2022-08-09T14:38:45.651Z,2.00
2022-08-09T14:41:50.763Z,2.00
2022-08-09T14:45:00.170Z,2.25
2022-08-09T14:47:59.626Z,1.00
2022-08-09T14:50:58.017Z,2.00
2022-08-09T14:53:55.741Z,2.00
2022-08-09T14:56:57.518Z,2.50
2022-08-09T14:59:56.717Z,3.00
2022-08-09T15:02:53.736Z,2.00
2022-08-09T15:05:58.157Z,3.00
2022-08-09T15:08:58.496Z,2.00
2022-08-09T15:11:57.312Z,2.00
2022-08-09T15:14:54.971Z,2.00
2022-08-09T15:17:53.220Z,2.00
2022-08-09T15:22:00.988Z,2.00
2022-08-09T15:24:12.171Z,2.00
2022-08-09T15:27:10.837Z,3.50
2022-08-09T15:30:57.084Z,3.00
2022-08-09T15:33:30.124Z,1.00
2022-08-09T15:36:48.128Z,2.50
2022-08-09T15:39:54.675Z,2.00
2022-08-09T15:42:53.128Z,2.00
2022-08-09T15:46:07.873Z,2.00
2022-08-09T15:49:07.954Z,2.75
2022-08-09T15:52:20.554Z,3.00
2022-08-09T15:55:23.947Z,2.25
2022-08-09T15:58:26.854Z,2.00
2022-08-09T16:01:24.666Z,1.50
2022-08-09T16:04:23.247Z,1.50
2022-08-09T16:07:21.148Z,2.00
2022-08-09T16:10:56.102Z,1.75
2022-08-09T16:14:03.450Z,2.00
2022-08-09T16:16:52.679Z,1.00
2022-08-09T16:20:03.859Z,1.25
2022-08-09T16:23:03.345Z,2.00
2022-08-09T16:26:02.808Z,2.00
2022-08-09T16:29:00.159Z,1.25
2022-08-09T16:32:17.935Z,2.00
2022-08-09T16:35:19.390Z,2.00
2022-08-09T16:38:34.690Z,2.25
2022-08-09T16:41:39.409Z,2.00
2022-08-09T16:44:49.206Z,1.75
2022-08-09T16:48:39.725Z,1.50
2022-08-09T16:51:08.241Z,1.00
2022-08-09T16:54:26.312Z,2.00
2022-08-09T16:58:08.135Z,2.00
2022-08-09T17:00:46.573Z,1.00
2022-08-09T17:03:45.021Z,2.00
2022-08-09T17:08:40.188Z,1.50
2022-08-09T17:10:01.962Z,1.00
2022-08-09T17:13:02.762Z,1.75
2022-08-09T17:16:04.386Z,2.50
2022-08-09T17:19:02.458Z,2.00
2022-08-09T17:22:02.887Z,1.75
2022-08-09T17:25:03.828Z,2.25
2022-08-09T17:28:05.489Z,2.50
2022-08-09T17:31:02.638Z,2.50
2022-08-09T17:33:59.581Z,1.00
2022-08-09T17:36:57.037Z,1.75
2022-08-09T17:40:00.231Z,2.00
2022-08-09T17:42:59.329Z,1.75
2022-08-09T17:46:03.738Z,2.75
2022-08-09T17:49:03.070Z,2.00
2022-08-09T17:52:02.359Z,2.25
2022-08-09T17:55:01.245Z,2.50
2022-08-09T17:58:03.221Z,4.50
2022-08-09T18:01:01.742Z,2.75
2022-08-09T18:03:59.665Z,4.25
2022-08-09T18:07:04.727Z,2.00
2022-08-09T18:10:05.691Z,3.50
2022-08-09T18:13:42.911Z,2.00
2022-08-09T18:16:29.247Z,2.75
2022-08-09T18:20:57.914Z,3.00
2022-08-09T18:22:44.210Z,2.75
2022-08-09T18:25:53.401Z,4.50
2022-08-09T18:30:39.171Z,3.50
2022-08-09T18:32:11.715Z,2.50
2022-08-09T18:35:09.956Z,3.75
2022-08-09T18:38:06.807Z,6.40
2022-08-09T18:41:08.940Z,3.25
2022-08-09T18:44:12.984Z,4.00
2022-08-09T18:47:15.272Z,3.00
2022-08-09T18:50:14.262Z,5.00
2022-08-09T18:53:13.452Z,3.25
2022-08-09T18:56:10.744Z,5.40
2022-08-09T18:59:07.962Z,3.00
2022-08-09T19:02:04.848Z,4.00
2022-08-09T19:05:19.721Z,4.00
2022-08-09T19:08:22.185Z,5.00
2022-08-09T19:11:35.126Z,4.00
2022-08-09T19:14:35.018Z,4.00
2022-08-09T19:17:54.387Z,3.00
2022-08-09T19:20:52.374Z,2.00
2022-08-09T19:24:37.050Z,4.60
2022-08-09T19:27:13.180Z,4.00
2022-08-09T19:30:25.246Z,2.75
2022-08-09T19:33:25.926Z,4.00
2022-08-09T19:36:23.972Z,3.00
2022-08-09T19:39:43.182Z,3.00
2022-08-09T19:42:47.305Z,2.75
2022-08-09T19:45:47.252Z,3.00
2022-08-09T19:49:00.385Z,3.00
2022-08-09T19:52:00.141Z,3.40
2022-08-09T19:54:59.179Z,2.50
2022-08-09T19:57:56.203Z,3.40
2022-08-09T20:00:53.907Z,2.00
2022-08-09T20:04:10.524Z,3.20
2022-08-09T20:07:20.977Z,2.80
2022-08-09T20:10:22.123Z,4.00
2022-08-09T20:13:25.227Z,3.00
2022-08-09T20:16:34.446Z,3.00
2022-08-09T20:19:47.707Z,3.40
2022-08-09T20:22:49.996Z,3.00
2022-08-09T20:25:51.486Z,3.00
2022-08-09T20:28:50.096Z,3.00
2022-08-09T20:32:28.686Z,2.40
2022-08-09T20:35:07.530Z,1.60
2022-08-09T20:38:22.234Z,3.00
2022-08-09T20:41:35.133Z,2.20
2022-08-09T20:44:36.515Z,2.80
2022-08-09T20:47:48.093Z,3.60
2022-08-09T20:50:47.602Z,3.00
2022-08-09T20:53:46.018Z,2.00
2022-08-09T20:56:49.654Z,2.00
2022-08-09T21:00:30.648Z,3.40
2022-08-09T21:03:08.238Z,2.60
2022-08-09T21:06:06.520Z,2.80
2022-08-09T21:09:06.579Z,2.00
2022-08-09T21:15:14.110Z,2.00
2022-08-09T21:18:24.668Z,2.60
2022-08-09T21:21:23.134Z,2.00
2022-08-09T21:25:00.334Z,1.40
2022-08-09T21:27:57.927Z,2.80
2022-08-09T21:30:54.917Z,2.20
2022-08-09T21:33:56.752Z,3.00
2022-08-09T21:36:55.874Z,3.00
2022-08-09T21:39:53.834Z,3.00
2022-08-09T21:42:54.346Z,2.80
2022-08-09T21:45:52.118Z,3.00
2022-08-09T21:48:53.378Z,2.00
2022-08-09T21:51:50.121Z,3.00
2022-08-09T21:54:59.599Z,2.00
2022-08-09T21:58:01.942Z,3.00
2022-08-09T22:00:59.521Z,2.00
2022-08-09T22:03:59.139Z,2.60
2022-08-09T22:07:02.004Z,3.00
2022-08-09T22:10:02.982Z,3.00
2022-08-09T22:13:00.274Z,3.00
2022-08-09T22:16:07.562Z,3.20
2022-08-09T22:19:23.841Z,4.00
2022-08-09T22:22:22.139Z,3.00
2022-08-09T22:26:07.383Z,3.60
2022-08-09T22:28:37.008Z,4.00
2022-08-09T22:31:44.121Z,3.00
2022-08-09T22:35:02.348Z,3.60
2022-08-09T22:38:06.999Z,3.00
2022-08-09T22:41:05.055Z,3.00
2022-08-09T22:44:04.472Z,4.00
2022-08-09T22:48:13.137Z,3.80
2022-08-09T22:50:19.586Z,3.00
2022-08-09T22:53:17.441Z,4.00
2022-08-09T22:56:33.209Z,4.00
2022-08-09T22:59:57.165Z,3.00
2022-08-09T23:02:48.095Z,3.80
2022-08-09T23:05:45.769Z,4.00
2022-08-09T23:08:45.712Z,3.00
2022-08-09T23:11:42.951Z,2.00
2022-08-09T23:14:42.195Z,3.20
2022-08-09T23:17:40.213Z,3.00
2022-08-09T23:20:36.877Z,4.00
2022-08-09T23:23:34.690Z,4.00
2022-08-09T23:26:32.155Z,5.00
2022-08-09T23:29:31.066Z,3.00
2022-08-09T23:32:28.320Z,4.00
2022-08-09T23:35:25.231Z,4.00
2022-08-09T23:38:22.056Z,4.00
2022-08-09T23:41:28.818Z,3.00
2022-08-09T23:44:26.195Z,3.00
2022-08-09T23:47:23.344Z,4.00
2022-08-09T23:50:20.420Z,4.00
2022-08-09T23:53:17.301Z,4.00
2022-08-09T23:56:15.499Z,3.00
2022-08-09T23:59:14.974Z,4.60
